sensor_id;sensor_type;location;lat;lon;timestamp;P1;durP1;ratioP1;P2;durP2;ratioP2
22476;SDS011;65006;51.698;-0.292;2022-12-07T00:00:41;10.77;;;3.75;;
22476;SDS011;65006;51.698;-0.292;2022-12-07T00:03:07;8.65;;;4.43;;
22476;SDS011;65006;51.698;-0.292;2022-12-07T00:05:33;15.85;;;4.22;;
22476;SDS011;65006;51.698;-0.292;2022-12-07T00:07:59;12.05;;;4.30;;
22476;SDS011;65006;51.698;-0.292;2022-12-07T00:10:25;13.60;;;4.10;;
22476;SDS011;65006;51.698;-0.292;2022-12-07T00:12:51;17.25;;;5.32;;
22476;SDS011;65006;51.698;-0.292;2022-12-07T00:15:17;16.23;;;4.45;;
22476;SDS011;65006;51.698;-0.292;2022-12-07T00:17:43;9.38;;;3.75;;
22476;SDS011;65006;51.698;-0.292;2022-12-07T00:20:09;13.45;;;4.40;;
22476;SDS011;65006;51.698;-0.292;2022-12-07T00:22:35;13.38;;;4.40;;
22476;SDS011;65006;51.698;-0.292;2022-12-07T00:25:01;10.98;;;4.97;;
22476;SDS011;65006;51.698;-0.292;2022-12-07T00:27:27;16.85;;;4.03;;
22476;SDS011;65006;51.698;-0.292;2022-12-07T00:29:53;10.57;;;4.18;;
22476;SDS011;65006;51.698;-0.292;2022-12-07T00:32:19;11.13;;;4.53;;
22476;SDS011;65006;51.698;-0.292;2022-12-07T00:34:45;9.25;;;4.47;;
22476;SDS011;65006;51.698;-0.292;2022-12-07T00:37:11;8.52;;;4.43;;
22476;SDS011;65006;51.698;-0.292;2022-12-07T00:39:37;18.42;;;4.85;;
22476;SDS011;65006;51.698;-0.292;2022-12-07T00:42:03;9.93;;;4.63;;
22476;SDS011;65006;51.698;-0.292;2022-12-07T00:44:30;14.10;;;4.00;;
22476;SDS011;65006;51.698;-0.292;2022-12-07T00:46:56;9.93;;;4.80;;
22476;SDS011;65006;51.698;-0.292;2022-12-07T00:49:22;14.93;;;5.13;;
22476;SDS011;65006;51.698;-0.292;2022-12-07T00:51:48;9.40;;;4.40;;
22476;SDS011;65006;51.698;-0.292;2022-12-07T00:54:14;14.57;;;5.07;;
22476;SDS011;65006;51.698;-0.292;2022-12-07T00:56:40;16.67;;;5.07;;
22476;SDS011;65006;51.698;-0.292;2022-12-07T00:59:06;12.40;;;4.65;;
22476;SDS011;65006;51.698;-0.292;2022-12-07T01:01:34;11.00;;;4.38;;
22476;SDS011;65006;51.698;-0.292;2022-12-07T01:04:02;12.10;;;4.70;;
22476;SDS011;65006;51.698;-0.292;2022-12-07T01:06:28;12.77;;;4.68;;
22476;SDS011;65006;51.698;-0.292;2022-12-07T01:08:54;12.00;;;4.53;;
22476;SDS011;65006;51.698;-0.292;2022-12-07T01:11:22;15.52;;;4.80;;
22476;SDS011;65006;51.698;-0.292;2022-12-07T01:13:51;10.88;;;4.55;;
22476;SDS011;65006;51.698;-0.292;2022-12-07T01:16:20;12.00;;;4.88;;
22476;SDS011;65006;51.698;-0.292;2022-12-07T01:18:47;15.32;;;4.20;;
22476;SDS011;65006;51.698;-0.292;2022-12-07T01:21:15;9.57;;;4.88;;
22476;SDS011;65006;51.698;-0.292;2022-12-07T01:23:42;12.25;;;5.00;;
22476;SDS011;65006;51.698;-0.292;2022-12-07T01:26:12;14.15;;;4.97;;
22476;SDS011;65006;51.698;-0.292;2022-12-07T01:28:39;9.32;;;4.47;;
22476;SDS011;65006;51.698;-0.292;2022-12-07T01:31:06;17.35;;;5.20;;
22476;SDS011;65006;51.698;-0.292;2022-12-07T01:33:36;13.32;;;4.93;;
22476;SDS011;65006;51.698;-0.292;2022-12-07T01:36:06;12.30;;;4.25;;
22476;SDS011;65006;51.698;-0.292;2022-12-07T01:38:33;11.73;;;4.70;;
22476;SDS011;65006;51.698;-0.292;2022-12-07T01:41:00;14.00;;;5.43;;
22476;SDS011;65006;51.698;-0.292;2022-12-07T01:43:27;14.10;;;5.70;;
22476;SDS011;65006;51.698;-0.292;2022-12-07T01:45:55;17.55;;;5.45;;
22476;SDS011;65006;51.698;-0.292;2022-12-07T01:50:47;12.07;;;4.85;;
22476;SDS011;65006;51.698;-0.292;2022-12-07T01:53:14;13.55;;;5.18;;
22476;SDS011;65006;51.698;-0.292;2022-12-07T01:55:42;12.73;;;5.35;;
22476;SDS011;65006;51.698;-0.292;2022-12-07T01:58:09;26.65;;;6.70;;
22476;SDS011;65006;51.698;-0.292;2022-12-07T02:00:36;18.50;;;5.90;;
22476;SDS011;65006;51.698;-0.292;2022-12-07T02:03:09;16.15;;;6.07;;
22476;SDS011;65006;51.698;-0.292;2022-12-07T02:05:37;13.40;;;6.53;;
22476;SDS011;65006;51.698;-0.292;2022-12-07T02:08:04;18.63;;;5.32;;
22476;SDS011;65006;51.698;-0.292;2022-12-07T02:10:30;12.60;;;5.30;;
22476;SDS011;65006;51.698;-0.292;2022-12-07T02:12:58;15.23;;;5.75;;
22476;SDS011;65006;51.698;-0.292;2022-12-07T02:15:26;14.82;;;6.07;;
22476;SDS011;65006;51.698;-0.292;2022-12-07T02:30:55;18.73;;;6.55;;
22476;SDS011;65006;51.698;-0.292;2022-12-07T02:33:33;16.40;;;5.40;;
22476;SDS011;65006;51.698;-0.292;2022-12-07T02:36:05;21.90;;;5.45;;
22476;SDS011;65006;51.698;-0.292;2022-12-07T02:38:39;18.05;;;5.93;;
22476;SDS011;65006;51.698;-0.292;2022-12-07T02:41:43;11.25;;;5.45;;
22476;SDS011;65006;51.698;-0.292;2022-12-07T02:44:03;12.30;;;5.65;;
22476;SDS011;65006;51.698;-0.292;2022-12-07T02:46:39;12.55;;;4.90;;
22476;SDS011;65006;51.698;-0.292;2022-12-07T02:49:06;12.35;;;5.80;;
22476;SDS011;65006;51.698;-0.292;2022-12-07T02:51:33;11.70;;;6.03;;
22476;SDS011;65006;51.698;-0.292;2022-12-07T02:53:59;14.23;;;5.07;;
22476;SDS011;65006;51.698;-0.292;2022-12-07T03:09:53;14.90;;;5.57;;
22476;SDS011;65006;51.698;-0.292;2022-12-07T03:12:35;15.43;;;5.63;;
22476;SDS011;65006;51.698;-0.292;2022-12-07T03:15:07;10.27;;;4.88;;
22476;SDS011;65006;51.698;-0.292;2022-12-07T03:17:36;12.95;;;5.75;;
22476;SDS011;65006;51.698;-0.292;2022-12-07T03:20:04;16.88;;;5.35;;
22476;SDS011;65006;51.698;-0.292;2022-12-07T03:22:31;11.77;;;5.32;;
22476;SDS011;65006;51.698;-0.292;2022-12-07T03:24:58;11.52;;;5.88;;
22476;SDS011;65006;51.698;-0.292;2022-12-07T03:27:49;10.95;;;5.65;;
22476;SDS011;65006;51.698;-0.292;2022-12-07T03:30:13;13.00;;;5.30;;
22476;SDS011;65006;51.698;-0.292;2022-12-07T03:33:00;12.85;;;5.15;;
22476;SDS011;65006;51.698;-0.292;2022-12-07T03:35:31;16.02;;;5.07;;
22476;SDS011;65006;51.698;-0.292;2022-12-07T03:38:07;16.73;;;4.78;;
22476;SDS011;65006;51.698;-0.292;2022-12-07T03:40:40;10.50;;;5.03;;
22476;SDS011;65006;51.698;-0.292;2022-12-07T03:43:09;14.98;;;5.03;;
22476;SDS011;65006;51.698;-0.292;2022-12-07T03:45:40;15.00;;;4.97;;
22476;SDS011;65006;51.698;-0.292;2022-12-07T03:50:43;14.23;;;4.72;;
22476;SDS011;65006;51.698;-0.292;2022-12-07T03:53:14;14.50;;;5.22;;
22476;SDS011;65006;51.698;-0.292;2022-12-07T03:55:42;13.93;;;4.63;;
22476;SDS011;65006;51.698;-0.292;2022-12-07T03:58:12;17.27;;;5.55;;
22476;SDS011;65006;51.698;-0.292;2022-12-07T04:00:38;13.93;;;5.40;;
22476;SDS011;65006;51.698;-0.292;2022-12-07T04:03:06;12.35;;;5.50;;
22476;SDS011;65006;51.698;-0.292;2022-12-07T04:05:32;17.88;;;4.90;;
22476;SDS011;65006;51.698;-0.292;2022-12-07T04:07:58;16.75;;;5.25;;
22476;SDS011;65006;51.698;-0.292;2022-12-07T04:10:24;9.48;;;4.82;;
22476;SDS011;65006;51.698;-0.292;2022-12-07T04:12:50;13.15;;;4.68;;
22476;SDS011;65006;51.698;-0.292;2022-12-07T04:15:16;12.00;;;5.72;;
22476;SDS011;65006;51.698;-0.292;2022-12-07T04:17:42;16.60;;;5.43;;
22476;SDS011;65006;51.698;-0.292;2022-12-07T04:20:08;16.35;;;5.35;;
22476;SDS011;65006;51.698;-0.292;2022-12-07T04:22:35;13.00;;;4.90;;
22476;SDS011;65006;51.698;-0.292;2022-12-07T04:25:01;11.40;;;4.47;;
22476;SDS011;65006;51.698;-0.292;2022-12-07T04:27:27;10.10;;;4.85;;
22476;SDS011;65006;51.698;-0.292;2022-12-07T04:29:53;9.23;;;4.75;;
22476;SDS011;65006;51.698;-0.292;2022-12-07T04:32:20;13.10;;;5.15;;
22476;SDS011;65006;51.698;-0.292;2022-12-07T04:34:46;16.50;;;5.88;;
22476;SDS011;65006;51.698;-0.292;2022-12-07T04:37:12;14.07;;;4.75;;
22476;SDS011;65006;51.698;-0.292;2022-12-07T04:39:38;12.35;;;5.70;;
22476;SDS011;65006;51.698;-0.292;2022-12-07T04:42:04;12.20;;;5.28;;
22476;SDS011;65006;51.698;-0.292;2022-12-07T04:44:30;19.13;;;4.70;;
22476;SDS011;65006;51.698;-0.292;2022-12-07T04:46:56;10.23;;;5.10;;
22476;SDS011;65006;51.698;-0.292;2022-12-07T04:49:23;11.60;;;5.00;;
22476;SDS011;65006;51.698;-0.292;2022-12-07T04:51:49;16.15;;;4.82;;
22476;SDS011;65006;51.698;-0.292;2022-12-07T04:54:15;11.32;;;4.43;;
22476;SDS011;65006;51.698;-0.292;2022-12-07T04:56:42;10.50;;;4.85;;
22476;SDS011;65006;51.698;-0.292;2022-12-07T04:59:09;14.07;;;6.07;;
22476;SDS011;65006;51.698;-0.292;2022-12-07T05:01:36;18.02;;;5.80;;
22476;SDS011;65006;51.698;-0.292;2022-12-07T05:04:02;14.05;;;5.18;;
22476;SDS011;65006;51.698;-0.292;2022-12-07T05:06:28;17.45;;;5.18;;
22476;SDS011;65006;51.698;-0.292;2022-12-07T05:08:54;11.73;;;4.70;;
22476;SDS011;65006;51.698;-0.292;2022-12-07T05:11:20;11.25;;;4.82;;
22476;SDS011;65006;51.698;-0.292;2022-12-07T05:14:25;9.75;;;4.97;;
22476;SDS011;65006;51.698;-0.292;2022-12-07T05:16:50;13.27;;;4.85;;
22476;SDS011;65006;51.698;-0.292;2022-12-07T05:19:18;14.13;;;6.10;;
22476;SDS011;65006;51.698;-0.292;2022-12-07T05:21:44;9.85;;;4.80;;
22476;SDS011;65006;51.698;-0.292;2022-12-07T05:24:11;13.65;;;5.72;;
22476;SDS011;65006;51.698;-0.292;2022-12-07T05:26:38;12.52;;;5.32;;
22476;SDS011;65006;51.698;-0.292;2022-12-07T05:29:04;15.93;;;5.65;;
22476;SDS011;65006;51.698;-0.292;2022-12-07T05:31:30;18.60;;;5.53;;
22476;SDS011;65006;51.698;-0.292;2022-12-07T05:33:56;13.68;;;4.95;;
22476;SDS011;65006;51.698;-0.292;2022-12-07T05:36:22;11.52;;;4.80;;
22476;SDS011;65006;51.698;-0.292;2022-12-07T05:38:49;16.55;;;5.07;;
22476;SDS011;65006;51.698;-0.292;2022-12-07T05:41:16;9.70;;;4.60;;
22476;SDS011;65006;51.698;-0.292;2022-12-07T05:44:02;13.48;;;4.82;;
22476;SDS011;65006;51.698;-0.292;2022-12-07T05:46:28;11.20;;;4.53;;
22476;SDS011;65006;51.698;-0.292;2022-12-07T05:48:54;13.57;;;5.68;;
22476;SDS011;65006;51.698;-0.292;2022-12-07T05:51:20;12.52;;;5.18;;
22476;SDS011;65006;51.698;-0.292;2022-12-07T05:53:46;11.27;;;4.80;;
22476;SDS011;65006;51.698;-0.292;2022-12-07T05:56:14;10.70;;;5.22;;
22476;SDS011;65006;51.698;-0.292;2022-12-07T05:58:40;13.38;;;5.07;;
22476;SDS011;65006;51.698;-0.292;2022-12-07T06:01:25;10.90;;;4.53;;
22476;SDS011;65006;51.698;-0.292;2022-12-07T06:03:51;18.17;;;4.90;;
22476;SDS011;65006;51.698;-0.292;2022-12-07T06:06:17;13.63;;;4.78;;
22476;SDS011;65006;51.698;-0.292;2022-12-07T06:08:43;11.07;;;5.30;;
22476;SDS011;65006;51.698;-0.292;2022-12-07T06:11:09;12.27;;;4.90;;
22476;SDS011;65006;51.698;-0.292;2022-12-07T06:13:54;11.15;;;4.97;;
22476;SDS011;65006;51.698;-0.292;2022-12-07T06:16:20;13.57;;;4.65;;
22476;SDS011;65006;51.698;-0.292;2022-12-07T06:18:45;10.98;;;4.70;;
22476;SDS011;65006;51.698;-0.292;2022-12-07T06:21:11;15.38;;;4.60;;
22476;SDS011;65006;51.698;-0.292;2022-12-07T06:23:38;12.27;;;4.63;;
22476;SDS011;65006;51.698;-0.292;2022-12-07T06:26:04;8.57;;;5.00;;
22476;SDS011;65006;51.698;-0.292;2022-12-07T06:28:30;10.15;;;4.78;;
22476;SDS011;65006;51.698;-0.292;2022-12-07T06:30:59;10.77;;;4.55;;
22476;SDS011;65006;51.698;-0.292;2022-12-07T06:33:25;10.57;;;5.38;;
22476;SDS011;65006;51.698;-0.292;2022-12-07T06:35:51;12.38;;;4.60;;
22476;SDS011;65006;51.698;-0.292;2022-12-07T06:38:17;18.42;;;5.78;;
22476;SDS011;65006;51.698;-0.292;2022-12-07T06:40:43;11.50;;;5.38;;
22476;SDS011;65006;51.698;-0.292;2022-12-07T06:43:09;14.73;;;6.18;;
22476;SDS011;65006;51.698;-0.292;2022-12-07T06:45:35;13.00;;;5.43;;
22476;SDS011;65006;51.698;-0.292;2022-12-07T06:48:01;12.63;;;5.45;;
22476;SDS011;65006;51.698;-0.292;2022-12-07T06:50:27;11.48;;;5.18;;
22476;SDS011;65006;51.698;-0.292;2022-12-07T06:52:53;13.00;;;5.43;;
22476;SDS011;65006;51.698;-0.292;2022-12-07T06:55:19;10.65;;;5.35;;
22476;SDS011;65006;51.698;-0.292;2022-12-07T06:57:45;10.77;;;5.05;;
22476;SDS011;65006;51.698;-0.292;2022-12-07T07:00:12;11.93;;;5.10;;
22476;SDS011;65006;51.698;-0.292;2022-12-07T07:02:38;12.10;;;5.03;;
22476;SDS011;65006;51.698;-0.292;2022-12-07T07:05:04;10.55;;;5.75;;
22476;SDS011;65006;51.698;-0.292;2022-12-07T07:07:30;11.15;;;5.50;;
22476;SDS011;65006;51.698;-0.292;2022-12-07T07:09:56;16.05;;;5.22;;
22476;SDS011;65006;51.698;-0.292;2022-12-07T07:12:22;9.38;;;5.05;;
22476;SDS011;65006;51.698;-0.292;2022-12-07T07:14:48;15.25;;;5.82;;
22476;SDS011;65006;51.698;-0.292;2022-12-07T07:17:14;17.63;;;5.70;;
22476;SDS011;65006;51.698;-0.292;2022-12-07T07:19:40;12.88;;;5.53;;
22476;SDS011;65006;51.698;-0.292;2022-12-07T07:22:06;13.85;;;5.20;;
22476;SDS011;65006;51.698;-0.292;2022-12-07T07:24:32;12.35;;;5.28;;
22476;SDS011;65006;51.698;-0.292;2022-12-07T07:26:58;15.80;;;6.28;;
22476;SDS011;65006;51.698;-0.292;2022-12-07T07:29:24;17.25;;;6.45;;
22476;SDS011;65006;51.698;-0.292;2022-12-07T07:31:50;18.92;;;6.50;;
22476;SDS011;65006;51.698;-0.292;2022-12-07T07:34:16;21.10;;;6.03;;
22476;SDS011;65006;51.698;-0.292;2022-12-07T07:36:42;19.20;;;6.28;;
22476;SDS011;65006;51.698;-0.292;2022-12-07T07:39:09;14.48;;;6.55;;
22476;SDS011;65006;51.698;-0.292;2022-12-07T07:41:35;17.20;;;6.75;;
22476;SDS011;65006;51.698;-0.292;2022-12-07T07:44:01;11.25;;;5.78;;
22476;SDS011;65006;51.698;-0.292;2022-12-07T07:46:27;20.02;;;6.75;;
22476;SDS011;65006;51.698;-0.292;2022-12-07T07:48:53;18.50;;;6.25;;
22476;SDS011;65006;51.698;-0.292;2022-12-07T07:51:19;12.85;;;6.55;;
22476;SDS011;65006;51.698;-0.292;2022-12-07T07:53:45;14.82;;;6.78;;
22476;SDS011;65006;51.698;-0.292;2022-12-07T07:56:11;15.02;;;6.38;;
22476;SDS011;65006;51.698;-0.292;2022-12-07T07:58:37;15.52;;;6.32;;
22476;SDS011;65006;51.698;-0.292;2022-12-07T08:01:04;18.38;;;6.90;;
22476;SDS011;65006;51.698;-0.292;2022-12-07T08:03:31;11.27;;;5.40;;
22476;SDS011;65006;51.698;-0.292;2022-12-07T08:05:57;11.07;;;5.57;;
22476;SDS011;65006;51.698;-0.292;2022-12-07T08:08:23;13.73;;;5.78;;
22476;SDS011;65006;51.698;-0.292;2022-12-07T08:10:49;14.60;;;5.38;;
22476;SDS011;65006;51.698;-0.292;2022-12-07T08:13:15;13.57;;;6.05;;
22476;SDS011;65006;51.698;-0.292;2022-12-07T08:15:46;10.43;;;5.43;;
22476;SDS011;65006;51.698;-0.292;2022-12-07T08:18:12;13.93;;;5.30;;
22476;SDS011;65006;51.698;-0.292;2022-12-07T08:23:05;14.60;;;5.68;;
22476;SDS011;65006;51.698;-0.292;2022-12-07T08:25:31;13.82;;;5.78;;
22476;SDS011;65006;51.698;-0.292;2022-12-07T08:30:23;16.13;;;5.45;;
22476;SDS011;65006;51.698;-0.292;2022-12-07T08:32:49;15.13;;;6.00;;
22476;SDS011;65006;51.698;-0.292;2022-12-07T08:35:15;12.48;;;6.43;;
22476;SDS011;65006;51.698;-0.292;2022-12-07T08:37:41;12.77;;;6.35;;
22476;SDS011;65006;51.698;-0.292;2022-12-07T08:40:08;15.57;;;6.32;;
22476;SDS011;65006;51.698;-0.292;2022-12-07T08:42:35;15.88;;;7.00;;
22476;SDS011;65006;51.698;-0.292;2022-12-07T08:45:08;15.05;;;5.97;;
22476;SDS011;65006;51.698;-0.292;2022-12-07T08:47:36;16.13;;;7.60;;
22476;SDS011;65006;51.698;-0.292;2022-12-07T08:50:03;27.67;;;8.45;;
22476;SDS011;65006;51.698;-0.292;2022-12-07T08:52:30;19.20;;;7.85;;
22476;SDS011;65006;51.698;-0.292;2022-12-07T08:54:56;12.65;;;5.63;;
22476;SDS011;65006;51.698;-0.292;2022-12-07T08:59:49;18.63;;;6.85;;
22476;SDS011;65006;51.698;-0.292;2022-12-07T09:02:15;16.58;;;6.80;;
22476;SDS011;65006;51.698;-0.292;2022-12-07T09:04:41;12.90;;;6.30;;
22476;SDS011;65006;51.698;-0.292;2022-12-07T09:07:07;15.13;;;7.15;;
22476;SDS011;65006;51.698;-0.292;2022-12-07T09:09:33;15.65;;;6.43;;
22476;SDS011;65006;51.698;-0.292;2022-12-07T09:11:59;15.52;;;6.40;;
22476;SDS011;65006;51.698;-0.292;2022-12-07T09:14:25;17.98;;;6.40;;
22476;SDS011;65006;51.698;-0.292;2022-12-07T09:16:51;17.27;;;6.90;;
22476;SDS011;65006;51.698;-0.292;2022-12-07T09:19:17;16.05;;;5.63;;
22476;SDS011;65006;51.698;-0.292;2022-12-07T09:21:43;19.30;;;5.97;;
22476;SDS011;65006;51.698;-0.292;2022-12-07T09:24:09;13.25;;;5.72;;
22476;SDS011;65006;51.698;-0.292;2022-12-07T09:26:35;12.77;;;5.57;;
22476;SDS011;65006;51.698;-0.292;2022-12-07T09:29:04;14.13;;;5.95;;
22476;SDS011;65006;51.698;-0.292;2022-12-07T09:31:30;13.68;;;6.00;;
22476;SDS011;65006;51.698;-0.292;2022-12-07T09:33:57;12.77;;;5.95;;
22476;SDS011;65006;51.698;-0.292;2022-12-07T09:36:24;20.88;;;6.90;;
22476;SDS011;65006;51.698;-0.292;2022-12-07T09:41:16;19.17;;;5.60;;
22476;SDS011;65006;51.698;-0.292;2022-12-07T09:43:42;13.27;;;5.78;;
22476;SDS011;65006;51.698;-0.292;2022-12-07T09:46:11;15.05;;;6.65;;
22476;SDS011;65006;51.698;-0.292;2022-12-07T09:48:39;12.82;;;5.43;;
22476;SDS011;65006;51.698;-0.292;2022-12-07T09:51:13;20.13;;;5.85;;
22476;SDS011;65006;51.698;-0.292;2022-12-07T09:53:40;13.95;;;6.07;;
22476;SDS011;65006;51.698;-0.292;2022-12-07T09:58:33;8.10;;;5.22;;
22476;SDS011;65006;51.698;-0.292;2022-12-07T10:01:00;11.63;;;5.68;;
22476;SDS011;65006;51.698;-0.292;2022-12-07T10:03:27;12.43;;;6.43;;
22476;SDS011;65006;51.698;-0.292;2022-12-07T10:05:53;15.30;;;6.70;;
22476;SDS011;65006;51.698;-0.292;2022-12-07T10:08:20;13.55;;;5.60;;
22476;SDS011;65006;51.698;-0.292;2022-12-07T10:10:48;14.77;;;5.75;;
22476;SDS011;65006;51.698;-0.292;2022-12-07T10:13:17;19.23;;;6.10;;
22476;SDS011;65006;51.698;-0.292;2022-12-07T10:15:54;10.32;;;5.40;;
22476;SDS011;65006;51.698;-0.292;2022-12-07T10:18:28;14.20;;;4.93;;
22476;SDS011;65006;51.698;-0.292;2022-12-07T10:23:29;9.73;;;6.15;;
22476;SDS011;65006;51.698;-0.292;2022-12-07T10:25:55;10.40;;;5.10;;
22476;SDS011;65006;51.698;-0.292;2022-12-07T10:28:22;9.70;;;5.07;;
22476;SDS011;65006;51.698;-0.292;2022-12-07T10:35:58;7.35;;;3.97;;
22476;SDS011;65006;51.698;-0.292;2022-12-07T10:38:26;9.68;;;4.72;;
22476;SDS011;65006;51.698;-0.292;2022-12-07T10:41:05;13.88;;;4.47;;
22476;SDS011;65006;51.698;-0.292;2022-12-07T10:43:32;10.95;;;4.15;;
22476;SDS011;65006;51.698;-0.292;2022-12-07T11:14:33;9.13;;;3.13;;
22476;SDS011;65006;51.698;-0.292;2022-12-07T11:17:09;11.10;;;3.45;;
22476;SDS011;65006;51.698;-0.292;2022-12-07T11:19:59;9.35;;;3.95;;
22476;SDS011;65006;51.698;-0.292;2022-12-07T11:32:41;12.75;;;4.07;;
22476;SDS011;65006;51.698;-0.292;2022-12-07T11:37:41;9.43;;;3.70;;
22476;SDS011;65006;51.698;-0.292;2022-12-07T11:40:20;8.45;;;3.80;;
22476;SDS011;65006;51.698;-0.292;2022-12-07T11:42:52;9.75;;;3.97;;
22476;SDS011;65006;51.698;-0.292;2022-12-07T11:45:20;8.70;;;3.38;;
22476;SDS011;65006;51.698;-0.292;2022-12-07T11:47:58;19.42;;;4.65;;
22476;SDS011;65006;51.698;-0.292;2022-12-07T11:53:22;9.65;;;4.18;;
22476;SDS011;65006;51.698;-0.292;2022-12-07T11:55:52;5.07;;;3.40;;
22476;SDS011;65006;51.698;-0.292;2022-12-07T12:00:47;6.15;;;3.58;;
22476;SDS011;65006;51.698;-0.292;2022-12-07T12:03:20;10.57;;;3.80;;
22476;SDS011;65006;51.698;-0.292;2022-12-07T12:05:50;7.68;;;3.70;;
22476;SDS011;65006;51.698;-0.292;2022-12-07T12:08:18;8.90;;;3.85;;
22476;SDS011;65006;51.698;-0.292;2022-12-07T12:10:55;8.13;;;4.60;;
22476;SDS011;65006;51.698;-0.292;2022-12-07T12:16:10;8.05;;;4.22;;
22476;SDS011;65006;51.698;-0.292;2022-12-07T12:21:07;10.95;;;3.85;;
22476;SDS011;65006;51.698;-0.292;2022-12-07T12:26:05;15.98;;;5.22;;
22476;SDS011;65006;51.698;-0.292;2022-12-07T12:32:04;13.55;;;4.13;;
22476;SDS011;65006;51.698;-0.292;2022-12-07T12:33:54;6.18;;;3.22;;
22476;SDS011;65006;51.698;-0.292;2022-12-07T12:49:54;9.77;;;3.47;;
22476;SDS011;65006;51.698;-0.292;2022-12-07T12:52:47;13.93;;;4.32;;
22476;SDS011;65006;51.698;-0.292;2022-12-07T12:55:12;9.85;;;3.92;;
22476;SDS011;65006;51.698;-0.292;2022-12-07T12:57:38;8.27;;;3.20;;
22476;SDS011;65006;51.698;-0.292;2022-12-07T13:00:23;6.75;;;3.30;;
22476;SDS011;65006;51.698;-0.292;2022-12-07T13:02:54;7.53;;;3.80;;
22476;SDS011;65006;51.698;-0.292;2022-12-07T13:05:21;10.02;;;4.13;;
22476;SDS011;65006;51.698;-0.292;2022-12-07T13:10:40;15.63;;;5.32;;
22476;SDS011;65006;51.698;-0.292;2022-12-07T13:15:40;11.02;;;4.22;;
22476;SDS011;65006;51.698;-0.292;2022-12-07T13:23:25;12.25;;;3.85;;
22476;SDS011;65006;51.698;-0.292;2022-12-07T13:25:54;6.85;;;3.80;;
22476;SDS011;65006;51.698;-0.292;2022-12-07T13:28:21;6.15;;;3.47;;
22476;SDS011;65006;51.698;-0.292;2022-12-07T13:33:17;7.53;;;3.22;;
22476;SDS011;65006;51.698;-0.292;2022-12-07T13:35:44;4.35;;;2.92;;
22476;SDS011;65006;51.698;-0.292;2022-12-07T13:38:22;6.25;;;2.65;;
22476;SDS011;65006;51.698;-0.292;2022-12-07T13:41:03;7.00;;;3.15;;
22476;SDS011;65006;51.698;-0.292;2022-12-07T13:43:29;20.00;;;3.05;;
22476;SDS011;65006;51.698;-0.292;2022-12-07T13:45:56;5.95;;;2.75;;
22476;SDS011;65006;51.698;-0.292;2022-12-07T13:50:52;8.48;;;2.80;;
22476;SDS011;65006;51.698;-0.292;2022-12-07T13:53:18;8.05;;;2.97;;
22476;SDS011;65006;51.698;-0.292;2022-12-07T13:55:46;14.43;;;2.85;;
22476;SDS011;65006;51.698;-0.292;2022-12-07T13:58:12;5.82;;;3.10;;
22476;SDS011;65006;51.698;-0.292;2022-12-07T14:00:39;6.70;;;2.20;;
22476;SDS011;65006;51.698;-0.292;2022-12-07T14:05:38;4.07;;;2.30;;
22476;SDS011;65006;51.698;-0.292;2022-12-07T14:10:34;8.88;;;2.75;;
22476;SDS011;65006;51.698;-0.292;2022-12-07T14:13:01;4.80;;;2.40;;
22476;SDS011;65006;51.698;-0.292;2022-12-07T14:15:31;7.95;;;2.97;;
22476;SDS011;65006;51.698;-0.292;2022-12-07T14:17:59;5.63;;;2.67;;
22476;SDS011;65006;51.698;-0.292;2022-12-07T14:22:55;4.43;;;2.75;;
22476;SDS011;65006;51.698;-0.292;2022-12-07T14:25:27;8.77;;;2.83;;
22476;SDS011;65006;51.698;-0.292;2022-12-07T14:27:57;4.38;;;2.70;;
22476;SDS011;65006;51.698;-0.292;2022-12-07T14:30:26;5.05;;;2.75;;
22476;SDS011;65006;51.698;-0.292;2022-12-07T14:32:54;7.30;;;2.20;;
22476;SDS011;65006;51.698;-0.292;2022-12-07T14:35:20;4.63;;;2.67;;
22476;SDS011;65006;51.698;-0.292;2022-12-07T14:37:47;7.95;;;2.70;;
22476;SDS011;65006;51.698;-0.292;2022-12-07T14:40:17;5.07;;;2.20;;
22476;SDS011;65006;51.698;-0.292;2022-12-07T14:42:44;3.30;;;1.98;;
22476;SDS011;65006;51.698;-0.292;2022-12-07T14:45:16;4.50;;;2.92;;
22476;SDS011;65006;51.698;-0.292;2022-12-07T14:47:42;10.70;;;2.55;;
22476;SDS011;65006;51.698;-0.292;2022-12-07T14:52:34;8.30;;;2.40;;
22476;SDS011;65006;51.698;-0.292;2022-12-07T14:55:00;9.73;;;2.22;;
22476;SDS011;65006;51.698;-0.292;2022-12-07T14:57:26;7.05;;;2.47;;
22476;SDS011;65006;51.698;-0.292;2022-12-07T14:59:52;7.70;;;2.42;;
22476;SDS011;65006;51.698;-0.292;2022-12-07T15:02:18;6.97;;;2.22;;
22476;SDS011;65006;51.698;-0.292;2022-12-07T15:04:44;11.68;;;3.05;;
22476;SDS011;65006;51.698;-0.292;2022-12-07T15:07:20;9.93;;;2.60;;
22476;SDS011;65006;51.698;-0.292;2022-12-07T15:09:47;10.43;;;2.63;;
22476;SDS011;65006;51.698;-0.292;2022-12-07T15:12:16;7.93;;;2.80;;
22476;SDS011;65006;51.698;-0.292;2022-12-07T15:14:42;10.20;;;3.30;;
22476;SDS011;65006;51.698;-0.292;2022-12-07T15:17:09;13.40;;;3.78;;
22476;SDS011;65006;51.698;-0.292;2022-12-07T15:19:36;6.22;;;3.28;;
22476;SDS011;65006;51.698;-0.292;2022-12-07T15:22:03;10.68;;;3.75;;
22476;SDS011;65006;51.698;-0.292;2022-12-07T15:26:55;7.45;;;3.45;;
22476;SDS011;65006;51.698;-0.292;2022-12-07T15:29:21;10.25;;;3.83;;
22476;SDS011;65006;51.698;-0.292;2022-12-07T15:31:48;10.40;;;3.75;;
22476;SDS011;65006;51.698;-0.292;2022-12-07T15:34:14;8.35;;;3.58;;
22476;SDS011;65006;51.698;-0.292;2022-12-07T15:36:40;6.50;;;3.42;;
22476;SDS011;65006;51.698;-0.292;2022-12-07T15:39:06;10.68;;;3.60;;
22476;SDS011;65006;51.698;-0.292;2022-12-07T15:41:32;9.88;;;3.55;;
22476;SDS011;65006;51.698;-0.292;2022-12-07T15:43:58;7.53;;;3.22;;
22476;SDS011;65006;51.698;-0.292;2022-12-07T15:46:42;8.98;;;3.58;;
22476;SDS011;65006;51.698;-0.292;2022-12-07T15:49:13;20.65;;;3.65;;
22476;SDS011;65006;51.698;-0.292;2022-12-07T15:51:40;6.95;;;3.35;;
22476;SDS011;65006;51.698;-0.292;2022-12-07T15:56:32;14.63;;;3.83;;
22476;SDS011;65006;51.698;-0.292;2022-12-07T15:58:58;8.23;;;3.78;;
22476;SDS011;65006;51.698;-0.292;2022-12-07T16:01:24;6.75;;;3.78;;
22476;SDS011;65006;51.698;-0.292;2022-12-07T16:03:50;10.10;;;4.25;;
22476;SDS011;65006;51.698;-0.292;2022-12-07T16:06:16;12.30;;;4.10;;
22476;SDS011;65006;51.698;-0.292;2022-12-07T16:08:43;7.25;;;3.47;;
22476;SDS011;65006;51.698;-0.292;2022-12-07T16:11:10;6.10;;;3.50;;
22476;SDS011;65006;51.698;-0.292;2022-12-07T16:13:36;6.38;;;3.85;;
22476;SDS011;65006;51.698;-0.292;2022-12-07T16:16:06;7.53;;;3.55;;
22476;SDS011;65006;51.698;-0.292;2022-12-07T16:18:34;14.50;;;4.40;;
22476;SDS011;65006;51.698;-0.292;2022-12-07T16:21:00;8.13;;;3.78;;
22476;SDS011;65006;51.698;-0.292;2022-12-07T16:23:26;11.50;;;4.72;;
22476;SDS011;65006;51.698;-0.292;2022-12-07T16:25:52;11.93;;;3.85;;
22476;SDS011;65006;51.698;-0.292;2022-12-07T16:28:18;15.45;;;4.57;;
22476;SDS011;65006;51.698;-0.292;2022-12-07T16:30:44;8.80;;;4.05;;
22476;SDS011;65006;51.698;-0.292;2022-12-07T16:33:11;6.38;;;3.58;;
22476;SDS011;65006;51.698;-0.292;2022-12-07T16:35:40;9.23;;;3.90;;
22476;SDS011;65006;51.698;-0.292;2022-12-07T16:38:06;6.38;;;3.92;;
22476;SDS011;65006;51.698;-0.292;2022-12-07T16:42:58;9.43;;;4.45;;
22476;SDS011;65006;51.698;-0.292;2022-12-07T16:45:25;13.25;;;3.50;;
22476;SDS011;65006;51.698;-0.292;2022-12-07T16:47:51;9.05;;;4.18;;
22476;SDS011;65006;51.698;-0.292;2022-12-07T16:50:17;7.75;;;3.88;;
22476;SDS011;65006;51.698;-0.292;2022-12-07T16:52:43;10.05;;;4.18;;
22476;SDS011;65006;51.698;-0.292;2022-12-07T16:55:09;9.40;;;4.00;;
22476;SDS011;65006;51.698;-0.292;2022-12-07T16:57:35;10.48;;;4.50;;
22476;SDS011;65006;51.698;-0.292;2022-12-07T17:00:01;10.00;;;3.75;;
22476;SDS011;65006;51.698;-0.292;2022-12-07T17:02:28;12.45;;;4.43;;
22476;SDS011;65006;51.698;-0.292;2022-12-07T17:04:54;10.73;;;4.40;;